Granada, Nicaragua
Current Conditions -  °F | °C
As of 5:00 PM on Monday 24 Nov 2014 (Local Time) from MNMG Reporting Station
Few Clouds Few Clouds  
Wind Chill: 90°   Ceiling: Unl
Heat Index: 98°   Visibility: 6mi
Dew Point: 73°   Wind: 7mph
Humidity: 59%   Direction: 120°ESE
Pressure: 29.74"   Gusts: NA
Location:  11.94°N, 85.96°W
Report Text: MNMG 242300Z 12006KT 9999 FEW020CB 32/23 Q1007 A2976 CB/N/NE/NW/E NOSIG
Loading
Personal Weather Stations






























Interactive Weather Map New forecast layout! Learn more

10-Day Weather Forecast

Advertisements
Track Severe Weather on mobile